createdAt,value
2022-09-27T00:00:54.462Z,8.60
2022-09-27T00:02:54.464Z,8.60
2022-09-27T00:04:54.433Z,8.60
2022-09-27T00:06:54.458Z,8.60
2022-09-27T00:08:54.453Z,8.60
2022-09-27T00:10:54.519Z,8.60
2022-09-27T00:12:54.456Z,8.60
2022-09-27T00:14:54.482Z,8.60
2022-09-27T00:16:54.425Z,8.60
2022-09-27T00:18:54.565Z,8.60
2022-09-27T00:20:54.441Z,8.60
2022-09-27T00:22:54.461Z,8.60
2022-09-27T00:24:54.431Z,8.60
2022-09-27T00:27:24.504Z,8.60
2022-09-27T00:29:24.434Z,8.60
2022-09-27T00:31:24.573Z,8.50
2022-09-27T00:33:24.445Z,8.50
2022-09-27T00:35:24.509Z,8.50
2022-09-27T00:37:24.501Z,8.60
2022-09-27T00:39:24.455Z,8.60
2022-09-27T00:41:24.450Z,8.60
2022-09-27T00:43:24.445Z,8.60
2022-09-27T00:45:24.476Z,8.60
2022-09-27T00:47:24.513Z,8.50
2022-09-27T00:49:24.487Z,8.60
2022-09-27T00:51:24.632Z,8.50
2022-09-27T00:53:24.479Z,8.50
2022-09-27T00:55:24.493Z,8.60
2022-09-27T00:57:24.484Z,8.50
2022-09-27T00:59:24.515Z,8.60
2022-09-27T01:01:24.618Z,8.60
2022-09-27T01:03:24.516Z,8.60
2022-09-27T01:05:24.462Z,8.60
2022-09-27T01:07:24.458Z,8.60
2022-09-27T01:09:24.469Z,8.60
2022-09-27T01:11:24.442Z,8.60
2022-09-27T01:13:24.447Z,8.60
2022-09-27T01:15:24.505Z,8.50
2022-09-27T01:17:24.478Z,8.50
2022-09-27T01:19:24.479Z,8.60
2022-09-27T01:21:24.523Z,8.60
2022-09-27T01:23:24.499Z,8.50
2022-09-27T01:25:24.476Z,8.50
2022-09-27T01:27:24.529Z,8.50
2022-09-27T01:29:24.460Z,8.50
2022-09-27T01:31:24.508Z,8.50
2022-09-27T01:33:24.507Z,8.50
2022-09-27T01:35:24.573Z,8.50
2022-09-27T01:37:24.459Z,8.40
2022-09-27T01:39:24.519Z,8.50
2022-09-27T01:41:24.519Z,8.50
2022-09-27T01:43:24.502Z,8.50
2022-09-27T01:45:24.486Z,8.50
2022-09-27T01:47:24.538Z,8.50
2022-09-27T01:49:24.536Z,8.50
2022-09-27T01:51:24.607Z,8.50
2022-09-27T01:53:24.524Z,8.60
2022-09-27T01:55:24.492Z,8.60
2022-09-27T01:57:24.578Z,8.60
2022-09-27T01:59:24.574Z,8.60
2022-09-27T02:01:24.582Z,8.50
2022-09-27T02:03:24.505Z,8.50
2022-09-27T02:05:24.522Z,8.50
2022-09-27T02:07:24.642Z,8.50
2022-09-27T02:09:24.544Z,8.50
2022-09-27T02:11:24.494Z,8.50
2022-09-27T02:13:24.751Z,8.50
2022-09-27T02:15:24.490Z,8.50
2022-09-27T02:17:24.489Z,8.60
2022-09-27T02:19:24.585Z,8.60
2022-09-27T02:21:54.506Z,8.60
2022-09-27T02:23:54.527Z,8.60
2022-09-27T02:25:54.506Z,8.60
2022-09-27T02:27:54.540Z,8.70
2022-09-27T02:29:54.524Z,8.70
2022-09-27T02:31:54.513Z,8.70
2022-09-27T02:33:54.627Z,8.80
2022-09-27T02:35:54.492Z,8.80
2022-09-27T02:37:54.557Z,8.80
2022-09-27T02:39:54.544Z,8.80
2022-09-27T02:41:54.524Z,8.80
2022-09-27T02:43:54.599Z,8.70
2022-09-27T02:45:54.584Z,8.70
2022-09-27T02:47:54.540Z,8.70
2022-09-27T02:49:54.528Z,8.80
2022-09-27T02:51:54.510Z,8.80
2022-09-27T02:53:54.687Z,8.80
2022-09-27T02:55:56.284Z,8.80
2022-09-27T02:57:54.582Z,8.80
2022-09-27T02:59:54.623Z,8.80
2022-09-27T03:01:54.644Z,8.80
2022-09-27T03:03:54.533Z,8.70
2022-09-27T03:05:54.593Z,8.70
2022-09-27T03:07:54.545Z,8.70
2022-09-27T03:09:54.583Z,8.70
2022-09-27T03:11:54.545Z,8.70
2022-09-27T03:14:07.378Z,8.60
2022-09-27T03:15:57.081Z,8.40
2022-09-27T03:17:54.545Z,8.30
2022-09-27T03:19:54.555Z,8.30
2022-09-27T03:21:54.605Z,8.30
2022-09-27T03:23:54.611Z,8.20
2022-09-27T03:25:54.645Z,8.20
2022-09-27T03:27:54.563Z,8.20
2022-09-27T03:29:54.591Z,8.30
2022-09-27T03:31:54.661Z,8.20
2022-09-27T03:33:54.585Z,8.20
2022-09-27T03:35:54.628Z,8.20
2022-09-27T03:37:54.707Z,8.20
2022-09-27T03:39:54.587Z,8.20
2022-09-27T03:41:54.564Z,8.20
2022-09-27T03:43:54.550Z,8.20
2022-09-27T03:45:54.694Z,8.10
2022-09-27T03:47:54.597Z,8.10
2022-09-27T03:49:54.563Z,8.10
2022-09-27T03:51:54.588Z,8.10
2022-09-27T03:53:54.615Z,8.10
2022-09-27T03:55:54.551Z,8.10
2022-09-27T03:57:54.587Z,8.00
2022-09-27T03:59:54.609Z,8.00
2022-09-27T04:01:54.636Z,8.00
2022-09-27T04:03:54.620Z,8.00
2022-09-27T04:05:54.597Z,8.00
2022-09-27T04:07:54.563Z,7.90
2022-09-27T04:09:54.559Z,7.90
2022-09-27T04:11:54.654Z,7.90
2022-09-27T04:13:54.583Z,7.90
2022-09-27T04:15:54.634Z,7.90
2022-09-27T04:18:24.705Z,7.80
2022-09-27T04:20:24.618Z,7.80
2022-09-27T04:22:24.708Z,7.80
2022-09-27T04:24:24.640Z,7.80
2022-09-27T04:26:24.588Z,7.80
2022-09-27T04:28:24.678Z,7.70
2022-09-27T04:30:24.748Z,7.60
2022-09-27T04:32:24.693Z,7.60
2022-09-27T04:34:24.589Z,7.60
2022-09-27T04:36:24.658Z,7.60
2022-09-27T04:38:24.642Z,7.60
2022-09-27T04:40:24.869Z,7.60
2022-09-27T04:42:24.674Z,7.60
2022-09-27T04:44:24.824Z,7.60
2022-09-27T04:46:24.691Z,7.60
2022-09-27T04:48:24.742Z,7.60
2022-09-27T04:50:24.691Z,7.60
2022-09-27T04:52:24.587Z,7.60
2022-09-27T04:54:24.691Z,7.60
2022-09-27T04:56:24.703Z,7.60
2022-09-27T04:58:24.637Z,7.60
2022-09-27T05:00:24.757Z,7.60
2022-09-27T05:02:24.752Z,7.60
2022-09-27T05:04:24.721Z,7.60
2022-09-27T05:06:24.760Z,7.60
2022-09-27T05:08:24.625Z,7.60
2022-09-27T05:10:24.611Z,7.60
2022-09-27T05:12:24.737Z,7.60
2022-09-27T05:16:24.778Z,7.60
2022-09-27T05:18:24.601Z,7.60
2022-09-27T05:20:24.713Z,7.60
2022-09-27T05:22:24.615Z,7.60
2022-09-27T05:24:24.676Z,7.60
2022-09-27T05:26:24.686Z,7.60
2022-09-27T05:28:24.632Z,7.60
2022-09-27T05:30:24.733Z,7.60
2022-09-27T05:32:24.711Z,7.60
2022-09-27T05:34:24.725Z,7.60
2022-09-27T05:36:24.815Z,7.60
2022-09-27T05:38:24.738Z,7.60
2022-09-27T05:40:40.119Z,7.60
2022-09-27T05:42:24.729Z,7.60
2022-09-27T05:44:24.684Z,7.70
2022-09-27T05:46:24.768Z,7.60
2022-09-27T05:48:24.718Z,7.70
2022-09-27T05:50:24.693Z,7.70
2022-09-27T05:52:24.742Z,7.70
2022-09-27T05:54:36.139Z,7.70
2022-09-27T05:56:36.171Z,7.80
2022-09-27T05:58:36.131Z,7.70
2022-09-27T06:00:36.100Z,7.70
2022-09-27T06:02:36.272Z,7.70
2022-09-27T06:04:36.157Z,7.60
2022-09-27T06:06:36.147Z,7.60
2022-09-27T06:08:36.103Z,7.60
2022-09-27T06:10:36.109Z,7.60
2022-09-27T06:12:36.208Z,7.60
2022-09-27T06:14:36.117Z,7.60
2022-09-27T06:16:36.151Z,7.60
2022-09-27T06:18:36.165Z,7.60
2022-09-27T06:20:36.116Z,7.60
2022-09-27T06:22:36.147Z,7.60
2022-09-27T06:24:36.171Z,7.60
2022-09-27T06:26:36.237Z,7.60
2022-09-27T06:28:36.133Z,7.60
2022-09-27T06:30:36.243Z,7.60
2022-09-27T06:32:36.125Z,7.60
2022-09-27T06:34:36.154Z,7.60
2022-09-27T06:36:37.257Z,7.50
2022-09-27T06:38:36.133Z,7.40
2022-09-27T06:40:36.211Z,7.40
2022-09-27T06:42:36.185Z,7.40
2022-09-27T06:44:36.185Z,7.40
2022-09-27T06:46:36.136Z,7.40
2022-09-27T06:48:36.192Z,7.50
2022-09-27T06:50:36.141Z,7.50
2022-09-27T06:52:36.122Z,7.40
2022-09-27T06:54:36.281Z,7.40
2022-09-27T06:56:36.124Z,7.40
2022-09-27T06:58:36.155Z,7.40
2022-09-27T07:00:36.191Z,7.40
2022-09-27T07:03:06.150Z,7.40
2022-09-27T07:05:06.178Z,7.40
2022-09-27T07:07:06.234Z,7.30
2022-09-27T07:09:06.353Z,7.30
2022-09-27T07:11:06.174Z,7.30
2022-09-27T07:13:06.190Z,7.40
2022-09-27T07:15:06.176Z,7.40
2022-09-27T07:17:06.196Z,7.30
2022-09-27T07:19:06.134Z,7.30
2022-09-27T07:21:06.134Z,7.50
2022-09-27T07:23:06.212Z,7.40
2022-09-27T07:25:06.178Z,7.40
2022-09-27T07:27:06.200Z,7.40
2022-09-27T07:29:06.196Z,7.50
2022-09-27T07:31:06.244Z,7.50
2022-09-27T07:33:06.183Z,7.60
2022-09-27T07:35:06.295Z,7.60
2022-09-27T07:37:06.193Z,7.60
2022-09-27T07:39:06.178Z,7.60
2022-09-27T07:41:06.186Z,7.60
2022-09-27T07:43:06.213Z,7.60
2022-09-27T07:45:09.107Z,7.60
2022-09-27T07:47:06.229Z,7.60
2022-09-27T07:49:06.193Z,7.80
2022-09-27T07:51:06.189Z,7.70
2022-09-27T07:53:06.223Z,7.70
2022-09-27T07:55:06.165Z,7.70
2022-09-27T07:57:06.189Z,7.70
2022-09-27T07:59:06.183Z,7.80
2022-09-27T08:01:06.290Z,7.70
2022-09-27T08:03:06.180Z,7.60
2022-09-27T08:05:06.192Z,7.60
2022-09-27T08:07:06.262Z,7.60
2022-09-27T08:09:06.210Z,7.60
2022-09-27T08:11:06.612Z,7.60
2022-09-27T08:13:06.199Z,7.70
2022-09-27T08:15:06.167Z,7.70
2022-09-27T08:17:06.178Z,7.60
2022-09-27T08:19:06.278Z,7.60
2022-09-27T08:21:06.177Z,7.80
2022-09-27T08:23:06.386Z,7.80
2022-09-27T08:25:06.242Z,7.80
2022-09-27T08:27:10.741Z,7.80
2022-09-27T08:29:06.215Z,7.70
2022-09-27T08:31:06.238Z,7.60
2022-09-27T08:33:06.232Z,7.60
2022-09-27T08:35:07.305Z,7.80
2022-09-27T08:37:06.215Z,7.80
2022-09-27T08:39:06.226Z,8.00
2022-09-27T08:41:06.249Z,8.10
2022-09-27T08:43:06.355Z,8.10
2022-09-27T08:45:06.249Z,8.00
2022-09-27T08:47:06.235Z,8.10
2022-09-27T08:49:06.221Z,8.20
2022-09-27T08:51:06.285Z,8.30
2022-09-27T08:53:06.237Z,8.30
2022-09-27T08:55:06.208Z,8.00
2022-09-27T08:57:06.219Z,8.00
2022-09-27T08:59:06.353Z,7.90
2022-09-27T09:01:06.273Z,7.90
2022-09-27T09:03:36.312Z,8.20
2022-09-27T09:05:36.249Z,8.20
2022-09-27T09:07:36.400Z,8.30
2022-09-27T09:09:36.222Z,8.30
2022-09-27T09:11:36.231Z,8.30
2022-09-27T09:13:36.270Z,8.30
2022-09-27T09:15:36.267Z,8.30
2022-09-27T09:17:36.265Z,8.30
2022-09-27T09:19:36.232Z,8.10
2022-09-27T09:21:36.337Z,8.10
2022-09-27T09:23:36.223Z,8.10
2022-09-27T09:25:36.307Z,8.10
2022-09-27T09:27:36.304Z,8.20
2022-09-27T09:29:36.228Z,8.30
2022-09-27T09:31:36.275Z,8.30
2022-09-27T09:33:36.266Z,8.30
2022-09-27T09:35:36.336Z,8.40
2022-09-27T09:37:36.248Z,8.60
2022-09-27T09:39:36.271Z,9.00
2022-09-27T09:41:36.295Z,9.20
2022-09-27T09:43:36.260Z,9.20
2022-09-27T09:45:36.296Z,9.40
2022-09-27T09:47:36.282Z,9.20
2022-09-27T09:49:36.268Z,9.00
2022-09-27T09:51:36.300Z,8.70
2022-09-27T09:53:36.254Z,8.70
2022-09-27T09:55:36.292Z,8.60
2022-09-27T09:57:36.318Z,8.60
2022-09-27T09:59:36.258Z,8.50
2022-09-27T10:01:36.334Z,8.50
2022-09-27T10:03:36.294Z,8.60
2022-09-27T10:05:36.284Z,8.60
2022-09-27T10:07:36.257Z,8.50
2022-09-27T10:09:36.355Z,8.60
2022-09-27T10:11:36.303Z,8.60
2022-09-27T10:13:36.325Z,9.20
2022-09-27T10:15:36.305Z,9.70
2022-09-27T10:17:36.290Z,9.60
2022-09-27T10:19:36.351Z,9.40
2022-09-27T10:21:36.284Z,9.40
2022-09-27T10:23:36.255Z,9.20
2022-09-27T10:25:36.356Z,9.20
2022-09-27T10:27:36.336Z,9.00
2022-09-27T10:29:37.890Z,9.00
2022-09-27T10:31:36.349Z,9.10
2022-09-27T10:33:36.348Z,9.00
2022-09-27T10:35:36.303Z,8.20
2022-09-27T10:37:36.419Z,8.20
2022-09-27T10:39:36.297Z,8.20
2022-09-27T10:41:36.293Z,7.30
2022-09-27T10:43:36.291Z,7.20
2022-09-27T10:45:36.363Z,7.20
2022-09-27T10:47:36.288Z,7.30
2022-09-27T10:49:36.331Z,7.30
2022-09-27T10:51:36.318Z,7.60
2022-09-27T10:53:36.321Z,8.30
2022-09-27T10:55:36.287Z,8.40
2022-09-27T10:57:36.313Z,8.40
2022-09-27T10:59:36.295Z,8.40
2022-09-27T11:02:06.295Z,8.80
2022-09-27T11:04:06.284Z,8.60
2022-09-27T11:06:06.323Z,8.40
2022-09-27T11:08:06.311Z,8.40
2022-09-27T11:10:06.339Z,8.40
2022-09-27T11:12:06.327Z,8.50
2022-09-27T11:14:06.326Z,9.60
2022-09-27T11:16:06.310Z,9.60
2022-09-27T11:18:06.338Z,9.60
2022-09-27T11:20:06.315Z,9.60
2022-09-27T11:22:06.298Z,9.20
2022-09-27T11:24:06.333Z,9.00
2022-09-27T11:26:06.309Z,9.00
2022-09-27T11:28:06.348Z,9.00
2022-09-27T11:30:06.353Z,9.00
2022-09-27T11:32:06.394Z,8.80
2022-09-27T11:34:06.355Z,8.70
2022-09-27T11:36:06.316Z,8.70
2022-09-27T11:38:06.427Z,8.70
2022-09-27T11:40:06.434Z,8.90
2022-09-27T11:42:06.331Z,8.90
2022-09-27T11:44:06.397Z,10.30
2022-09-27T11:46:17.821Z,10.30
2022-09-27T11:48:06.476Z,10.50
2022-09-27T11:50:06.689Z,10.40
2022-09-27T11:52:06.401Z,10.20
2022-09-27T11:54:07.493Z,9.80
2022-09-27T11:56:06.397Z,9.80
2022-09-27T11:58:06.407Z,9.70
2022-09-27T12:00:06.445Z,9.70
2022-09-27T12:02:06.702Z,9.40
2022-09-27T12:04:06.354Z,9.40
2022-09-27T12:06:07.648Z,9.40
2022-09-27T12:08:06.401Z,9.50
2022-09-27T12:10:06.437Z,9.60
2022-09-27T12:12:06.429Z,9.60
2022-09-27T12:14:06.474Z,9.60
2022-09-27T12:16:06.439Z,10.10
2022-09-27T12:18:06.540Z,10.30
2022-09-27T12:20:06.417Z,10.40
2022-09-27T12:22:06.364Z,10.60
2022-09-27T12:24:06.371Z,10.60
2022-09-27T12:26:06.332Z,10.50
2022-09-27T12:28:06.492Z,10.30
2022-09-27T12:30:06.505Z,10.50
2022-09-27T12:32:06.692Z,10.50
2022-09-27T12:34:08.412Z,10.60
2022-09-27T12:36:06.460Z,10.50
2022-09-27T12:38:06.731Z,10.60
2022-09-27T12:40:06.507Z,10.60
2022-09-27T12:42:06.439Z,10.60
2022-09-27T12:44:06.456Z,10.50
2022-09-27T12:46:06.473Z,10.50
2022-09-27T12:48:06.530Z,10.40
2022-09-27T12:50:06.507Z,10.40
2022-09-27T12:54:33.302Z,10.10
2022-09-27T12:56:33.255Z,10.10
2022-09-27T12:58:33.304Z,9.90
2022-09-27T13:00:33.317Z,9.30
2022-09-27T13:02:33.243Z,8.30
2022-09-27T13:04:33.309Z,8.30
2022-09-27T13:06:33.278Z,7.70
2022-09-27T13:08:34.292Z,7.40
2022-09-27T13:10:34.467Z,7.20
2022-09-27T13:12:33.278Z,7.00
2022-09-27T13:14:33.296Z,7.00
2022-09-27T13:16:33.470Z,6.80
2022-09-27T13:18:33.233Z,6.80
2022-09-27T13:20:33.352Z,6.80
2022-09-27T13:22:33.244Z,6.80
2022-09-27T13:24:33.185Z,6.80
2022-09-27T13:26:33.307Z,6.90
2022-09-27T13:28:33.303Z,6.80
2022-09-27T13:30:33.314Z,6.80
2022-09-27T13:32:33.227Z,6.80
2022-09-27T13:34:33.294Z,7.00
2022-09-27T13:36:34.259Z,7.00
2022-09-27T13:38:33.304Z,6.80
2022-09-27T13:40:33.389Z,6.90
2022-09-27T13:42:33.296Z,6.90
2022-09-27T13:44:33.308Z,7.00
2022-09-27T13:46:33.469Z,7.00
2022-09-27T13:48:33.212Z,6.80
2022-09-27T13:50:34.328Z,6.80
2022-09-27T13:52:33.249Z,6.80
2022-09-27T13:54:33.306Z,6.90
2022-09-27T13:56:35.314Z,6.90
2022-09-27T13:58:35.980Z,7.00
2022-09-27T14:00:33.384Z,7.00
2022-09-27T14:02:33.295Z,7.00
2022-09-27T14:04:33.221Z,6.80
2022-09-27T14:06:33.326Z,7.10
2022-09-27T14:08:33.256Z,7.40
2022-09-27T14:10:33.281Z,7.40
2022-09-27T14:12:33.371Z,7.20
2022-09-27T14:14:33.431Z,7.20
2022-09-27T14:16:33.410Z,7.30
2022-09-27T14:18:33.381Z,7.20
2022-09-27T14:20:33.340Z,7.20
2022-09-27T14:22:33.344Z,7.20
2022-09-27T14:24:33.266Z,7.20
2022-09-27T14:26:33.336Z,7.20
2022-09-27T14:28:33.349Z,7.20
2022-09-27T14:30:33.312Z,7.20
2022-09-27T14:32:33.276Z,7.20
2022-09-27T14:34:34.290Z,7.20
2022-09-27T14:36:33.315Z,7.20
2022-09-27T14:38:38.256Z,7.20
2022-09-27T14:40:33.344Z,7.20
2022-09-27T14:43:03.331Z,7.20
2022-09-27T14:45:03.395Z,7.00
2022-09-27T14:47:03.408Z,7.00
2022-09-27T14:49:03.353Z,7.00
2022-09-27T14:51:06.142Z,6.90
2022-09-27T14:53:03.247Z,7.00
2022-09-27T14:55:03.307Z,6.90
2022-09-27T14:57:04.329Z,6.80
2022-09-27T14:59:03.390Z,6.80
2022-09-27T15:01:03.361Z,6.80
2022-09-27T15:03:03.519Z,6.90
2022-09-27T15:05:03.376Z,6.80
2022-09-27T15:07:03.308Z,6.80
2022-09-27T15:09:03.342Z,6.80
2022-09-27T15:11:03.347Z,6.60
2022-09-27T15:13:03.345Z,6.80
2022-09-27T15:15:03.381Z,6.80
2022-09-27T15:17:03.470Z,6.80
2022-09-27T15:19:04.593Z,6.80
2022-09-27T15:21:03.494Z,6.80
2022-09-27T15:23:03.348Z,6.80
2022-09-27T15:25:03.388Z,6.80
2022-09-27T15:27:03.386Z,6.80
2022-09-27T15:29:03.828Z,6.80
2022-09-27T15:31:03.420Z,6.90
2022-09-27T15:33:03.416Z,7.00
2022-09-27T15:35:03.371Z,7.00
2022-09-27T15:37:03.357Z,7.00
2022-09-27T15:39:04.174Z,7.00
2022-09-27T15:41:03.495Z,7.00
2022-09-27T15:43:03.353Z,7.00
2022-09-27T15:45:03.364Z,7.00
2022-09-27T15:47:03.390Z,6.90
2022-09-27T15:49:03.319Z,6.90
2022-09-27T15:51:03.346Z,6.90
2022-09-27T15:53:03.309Z,6.90
2022-09-27T15:55:03.388Z,6.90
2022-09-27T15:57:03.357Z,6.90
2022-09-27T15:59:03.398Z,6.90
2022-09-27T16:01:03.506Z,6.90
2022-09-27T16:03:03.427Z,6.90
2022-09-27T16:05:03.300Z,6.90
2022-09-27T16:07:03.339Z,7.00
2022-09-27T16:09:03.320Z,7.00
2022-09-27T16:11:03.381Z,7.00
2022-09-27T16:13:03.376Z,7.00
2022-09-27T16:15:03.513Z,7.10
2022-09-27T16:17:03.478Z,7.00
2022-09-27T16:19:03.435Z,6.90
2022-09-27T16:21:03.307Z,6.90
2022-09-27T16:23:03.396Z,6.90
2022-09-27T16:25:03.351Z,6.90
2022-09-27T16:27:03.358Z,6.90
2022-09-27T16:29:03.399Z,7.00
2022-09-27T16:31:03.441Z,6.90
2022-09-27T16:33:03.399Z,6.90
2022-09-27T16:35:33.474Z,6.90
2022-09-27T16:37:33.381Z,7.00
2022-09-27T16:39:33.381Z,7.00
2022-09-27T16:41:33.381Z,7.00
2022-09-27T16:43:33.415Z,7.00
2022-09-27T16:45:33.461Z,7.00
2022-09-27T16:47:33.429Z,6.80
2022-09-27T16:49:34.383Z,6.80
2022-09-27T16:51:34.619Z,6.80
2022-09-27T16:53:33.330Z,6.90
2022-09-27T16:55:33.397Z,6.90
2022-09-27T16:57:33.501Z,6.80
2022-09-27T16:59:33.414Z,6.80
2022-09-27T17:01:33.477Z,6.90
2022-09-27T17:03:33.449Z,6.90
2022-09-27T17:05:33.381Z,6.90
2022-09-27T17:07:33.349Z,6.90
2022-09-27T17:09:33.365Z,6.90
2022-09-27T17:11:33.493Z,6.90
2022-09-27T17:13:33.441Z,6.90
2022-09-27T17:15:33.498Z,6.90
2022-09-27T17:17:33.457Z,7.00
2022-09-27T17:19:33.365Z,7.00
2022-09-27T17:21:37.976Z,7.00
2022-09-27T17:23:33.914Z,7.00
2022-09-27T17:25:33.501Z,7.00
2022-09-27T17:27:33.383Z,7.00
2022-09-27T17:29:33.420Z,6.90
2022-09-27T17:31:33.575Z,6.90
2022-09-27T17:33:33.496Z,6.90
2022-09-27T17:35:33.394Z,6.90
2022-09-27T17:37:33.396Z,6.80
2022-09-27T17:39:33.412Z,6.80
2022-09-27T17:41:36.401Z,6.80
2022-09-27T17:43:33.387Z,6.70
2022-09-27T17:45:33.468Z,6.60
2022-09-27T17:47:33.508Z,6.60
2022-09-27T17:49:33.504Z,6.50
2022-09-27T17:51:33.554Z,6.50
2022-09-27T17:53:36.249Z,6.40
2022-09-27T17:55:33.452Z,6.40
2022-09-27T17:57:33.440Z,6.30
2022-09-27T17:59:33.574Z,6.30
2022-09-27T18:01:33.557Z,6.30
2022-09-27T18:03:33.475Z,6.20
2022-09-27T18:05:33.356Z,6.20
2022-09-27T18:07:33.428Z,6.10
2022-09-27T18:09:33.577Z,6.10
2022-09-27T18:11:33.535Z,6.20
2022-09-27T18:13:33.450Z,6.20
2022-09-27T18:15:33.450Z,6.20
2022-09-27T18:17:33.498Z,6.30
2022-09-27T18:19:33.570Z,6.30
2022-09-27T18:21:33.441Z,6.40
2022-09-27T18:23:33.389Z,6.40
2022-09-27T18:25:33.410Z,6.50
2022-09-27T18:27:33.423Z,6.60
2022-09-27T18:30:03.515Z,6.60
2022-09-27T18:32:03.454Z,6.70
2022-09-27T18:34:03.397Z,6.70
2022-09-27T18:36:03.514Z,6.80
2022-09-27T18:38:04.477Z,6.80
2022-09-27T18:40:03.427Z,6.90
2022-09-27T18:42:03.416Z,6.90
2022-09-27T18:44:03.454Z,7.00
2022-09-27T18:46:23.988Z,7.00
2022-09-27T18:48:03.490Z,7.00
2022-09-27T18:50:03.508Z,7.00
2022-09-27T18:52:03.416Z,7.00
2022-09-27T18:54:03.455Z,7.00
2022-09-27T18:56:03.451Z,7.00
2022-09-27T18:58:03.534Z,7.00
2022-09-27T19:00:03.448Z,7.00
2022-09-27T19:02:03.566Z,6.90
2022-09-27T19:04:03.485Z,6.90
2022-09-27T19:06:03.402Z,6.90
2022-09-27T19:08:03.385Z,6.90
2022-09-27T19:10:03.479Z,6.90
2022-09-27T19:12:03.543Z,6.80
2022-09-27T19:14:03.412Z,6.80
2022-09-27T19:16:03.653Z,6.80
2022-09-27T19:18:03.601Z,6.80
2022-09-27T19:20:03.596Z,6.70
2022-09-27T19:22:03.404Z,6.80
2022-09-27T19:24:03.543Z,6.80
2022-09-27T19:26:04.476Z,6.80
2022-09-27T19:28:03.552Z,6.80
2022-09-27T19:30:03.534Z,6.80
2022-09-27T19:32:03.503Z,6.80
2022-09-27T19:34:03.479Z,6.80
2022-09-27T19:36:03.498Z,6.80
2022-09-27T19:38:03.505Z,6.80
2022-09-27T19:40:03.505Z,6.90
2022-09-27T19:42:03.457Z,6.80
2022-09-27T19:44:03.510Z,6.80
2022-09-27T19:46:03.538Z,6.80
2022-09-27T19:48:03.498Z,6.80
2022-09-27T19:50:03.454Z,6.80
2022-09-27T19:52:03.538Z,6.80
2022-09-27T19:54:03.554Z,6.80
2022-09-27T19:56:03.466Z,6.70
2022-09-27T19:58:03.523Z,6.60
2022-09-27T20:00:03.560Z,6.60
2022-09-27T20:02:03.701Z,6.50
2022-09-27T20:06:03.615Z,6.40
2022-09-27T20:08:03.543Z,6.40
2022-09-27T20:10:03.566Z,6.40
2022-09-27T20:12:03.463Z,6.40
2022-09-27T20:14:15.884Z,6.30
2022-09-27T20:16:15.882Z,6.20
2022-09-27T20:18:15.825Z,6.20
2022-09-27T20:20:15.836Z,6.20
2022-09-27T20:22:15.864Z,6.20
2022-09-27T20:24:15.887Z,6.10
2022-09-27T20:26:15.900Z,6.00
2022-09-27T20:28:15.949Z,6.00
2022-09-27T20:30:15.908Z,5.90
2022-09-27T20:32:27.290Z,5.90
2022-09-27T20:34:15.904Z,5.90
2022-09-27T20:36:15.812Z,5.90
2022-09-27T20:38:15.883Z,5.90
2022-09-27T20:40:15.904Z,5.90
2022-09-27T20:42:15.876Z,5.90
2022-09-27T20:44:15.932Z,5.80
2022-09-27T20:46:15.992Z,5.70
2022-09-27T20:48:15.827Z,5.70
2022-09-27T20:50:15.835Z,5.70
2022-09-27T20:52:15.847Z,5.60
2022-09-27T20:54:15.891Z,5.60
2022-09-27T20:56:15.899Z,5.60
2022-09-27T20:58:15.802Z,5.60
2022-09-27T21:00:15.932Z,5.60
2022-09-27T21:02:15.983Z,5.60
2022-09-27T21:04:15.992Z,5.60
2022-09-27T21:06:15.808Z,5.60
2022-09-27T21:08:45.879Z,5.70
2022-09-27T21:10:49.219Z,5.80
2022-09-27T21:12:45.867Z,5.80
2022-09-27T21:14:45.900Z,5.80
2022-09-27T21:16:45.971Z,5.80
2022-09-27T21:18:45.881Z,5.90
2022-09-27T21:20:45.861Z,5.90
2022-09-27T21:22:45.897Z,5.90
2022-09-27T21:24:45.918Z,6.00
2022-09-27T21:26:45.896Z,6.00
2022-09-27T21:28:45.926Z,6.00
2022-09-27T21:30:45.954Z,6.10
2022-09-27T21:32:45.973Z,6.10
2022-09-27T21:34:45.891Z,6.10
2022-09-27T21:36:45.887Z,6.10
2022-09-27T21:38:45.922Z,6.10
2022-09-27T21:40:46.008Z,6.10
2022-09-27T21:42:45.969Z,6.20
2022-09-27T21:44:45.990Z,6.10
2022-09-27T21:46:45.974Z,6.10
2022-09-27T21:48:45.842Z,6.00
2022-09-27T21:50:45.881Z,6.00
2022-09-27T21:52:45.904Z,6.00
2022-09-27T21:54:45.872Z,5.90
2022-09-27T21:56:45.828Z,5.80
2022-09-27T21:58:46.044Z,5.70
2022-09-27T22:00:46.000Z,5.70
2022-09-27T22:02:46.865Z,5.60
2022-09-27T22:04:45.942Z,5.60
2022-09-27T22:06:45.878Z,5.60
2022-09-27T22:08:45.926Z,5.60
2022-09-27T22:10:45.923Z,5.60
2022-09-27T22:12:45.908Z,5.60
2022-09-27T22:14:45.977Z,5.60
2022-09-27T22:16:45.974Z,5.60
2022-09-27T22:18:45.935Z,5.60
2022-09-27T22:20:45.883Z,5.60
2022-09-27T22:22:45.947Z,5.60
2022-09-27T22:24:45.907Z,5.60
2022-09-27T22:26:45.959Z,5.60
2022-09-27T22:28:45.891Z,5.60
2022-09-27T22:30:45.902Z,5.60
2022-09-27T22:32:45.993Z,5.60
2022-09-27T22:34:46.024Z,5.70
2022-09-27T22:36:45.911Z,5.80
2022-09-27T22:38:45.967Z,5.80
2022-09-27T22:40:46.000Z,5.80
2022-09-27T22:42:45.887Z,5.80
2022-09-27T22:44:46.035Z,5.90
2022-09-27T22:46:45.953Z,5.90
2022-09-27T22:48:45.955Z,5.80
2022-09-27T22:50:45.944Z,5.80
2022-09-27T22:52:45.891Z,5.90
2022-09-27T22:54:45.907Z,5.90
2022-09-27T22:56:45.882Z,5.90
2022-09-27T22:58:45.866Z,6.00
2022-09-27T23:01:15.916Z,6.20
2022-09-27T23:03:15.905Z,6.30
2022-09-27T23:05:15.890Z,6.30
2022-09-27T23:07:15.918Z,6.30
2022-09-27T23:09:16.232Z,6.30
2022-09-27T23:11:15.964Z,6.30
2022-09-27T23:13:15.927Z,6.40
2022-09-27T23:15:15.870Z,6.40
2022-09-27T23:17:15.922Z,6.40
2022-09-27T23:19:16.017Z,6.40
2022-09-27T23:21:15.935Z,6.40
2022-09-27T23:23:15.896Z,6.40
2022-09-27T23:25:15.894Z,6.40
2022-09-27T23:27:15.887Z,6.30
2022-09-27T23:29:15.967Z,6.30
2022-09-27T23:31:15.966Z,6.30
2022-09-27T23:33:15.949Z,6.30
2022-09-27T23:35:16.941Z,6.30
2022-09-27T23:37:15.940Z,6.30
2022-09-27T23:39:16.103Z,6.30
2022-09-27T23:41:17.254Z,6.30
2022-09-27T23:43:15.933Z,6.30
2022-09-27T23:45:15.948Z,6.30
2022-09-27T23:47:15.884Z,6.30
2022-09-27T23:49:15.924Z,6.30
2022-09-27T23:51:16.113Z,6.30
2022-09-27T23:53:15.974Z,6.30
2022-09-27T23:55:15.936Z,6.30
2022-09-27T23:57:15.955Z,6.30
2022-09-27T23:59:16.000Z,6.40
